sensor_id;sensor_type;location;lat;lon;timestamp;temperature;humidity
16627;DHT22;8427;52.204;7.202;2023-05-10T06:48:26;14.30;88.80
16627;DHT22;8427;52.204;7.202;2023-05-10T06:50:54;14.40;88.70
16627;DHT22;8427;52.204;7.202;2023-05-10T06:53:22;14.40;88.30
16627;DHT22;8427;52.204;7.202;2023-05-10T06:55:50;14.50;88.50
16627;DHT22;8427;52.204;7.202;2023-05-10T06:58:18;14.60;88.50
16627;DHT22;8427;52.204;7.202;2023-05-10T07:00:46;14.50;88.30
16627;DHT22;8427;52.204;7.202;2023-05-10T07:03:14;14.60;88.10
16627;DHT22;8427;52.204;7.202;2023-05-10T07:05:44;14.60;88.00
16627;DHT22;8427;52.204;7.202;2023-05-10T07:08:12;14.50;87.50
16627;DHT22;8427;52.204;7.202;2023-05-10T07:10:41;14.50;87.30
16627;DHT22;8427;52.204;7.202;2023-05-10T07:13:09;14.50;87.80
16627;DHT22;8427;52.204;7.202;2023-05-10T07:15:37;14.70;87.10
16627;DHT22;8427;52.204;7.202;2023-05-10T07:18:05;14.70;87.40
16627;DHT22;8427;52.204;7.202;2023-05-10T07:20:33;14.80;87.30
16627;DHT22;8427;52.204;7.202;2023-05-10T07:23:02;14.70;86.80
16627;DHT22;8427;52.204;7.202;2023-05-10T07:25:30;14.90;87.60
16627;DHT22;8427;52.204;7.202;2023-05-10T07:27:58;14.90;86.70
16627;DHT22;8427;52.204;7.202;2023-05-10T07:30:26;14.90;86.60
16627;DHT22;8427;52.204;7.202;2023-05-10T07:32:54;14.80;86.00
16627;DHT22;8427;52.204;7.202;2023-05-10T07:35:22;14.90;86.30
16627;DHT22;8427;52.204;7.202;2023-05-10T07:37:50;15.00;85.80
16627;DHT22;8427;52.204;7.202;2023-05-10T07:40:20;15.00;85.70
16627;DHT22;8427;52.204;7.202;2023-05-10T07:42:48;15.20;86.00
16627;DHT22;8427;52.204;7.202;2023-05-10T07:45:16;15.10;85.00
16627;DHT22;8427;52.204;7.202;2023-05-10T07:47:44;15.20;85.20
16627;DHT22;8427;52.204;7.202;2023-05-10T07:50:12;15.30;83.80
16627;DHT22;8427;52.204;7.202;2023-05-10T07:52:41;15.40;84.50
16627;DHT22;8427;52.204;7.202;2023-05-10T07:55:09;15.60;84.10
16627;DHT22;8427;52.204;7.202;2023-05-10T07:57:39;15.70;83.30
16627;DHT22;8427;52.204;7.202;2023-05-10T08:00:08;15.60;83.40
16627;DHT22;8427;52.204;7.202;2023-05-10T08:02:36;15.70;82.60
16627;DHT22;8427;52.204;7.202;2023-05-10T08:05:05;15.70;83.10
16627;DHT22;8427;52.204;7.202;2023-05-10T08:07:33;15.70;83.20
16627;DHT22;8427;52.204;7.202;2023-05-10T08:10:01;16.00;83.40
16627;DHT22;8427;52.204;7.202;2023-05-10T08:12:29;16.00;82.50
16627;DHT22;8427;52.204;7.202;2023-05-10T08:14:58;15.90;82.10
16627;DHT22;8427;52.204;7.202;2023-05-10T08:17:26;15.70;82.60
16627;DHT22;8427;52.204;7.202;2023-05-10T08:19:54;15.60;83.30
16627;DHT22;8427;52.204;7.202;2023-05-10T08:22:22;15.70;83.50
16627;DHT22;8427;52.204;7.202;2023-05-10T08:24:50;15.40;83.20
16627;DHT22;8427;52.204;7.202;2023-05-10T08:27:18;15.40;83.20
16627;DHT22;8427;52.204;7.202;2023-05-10T08:29:46;15.50;84.20
16627;DHT22;8427;52.204;7.202;2023-05-10T08:32:17;15.50;83.40
16627;DHT22;8427;52.204;7.202;2023-05-10T08:34:45;15.60;83.80
16627;DHT22;8427;52.204;7.202;2023-05-10T08:37:13;15.60;83.00
16627;DHT22;8427;52.204;7.202;2023-05-10T08:39:41;15.40;83.50
16627;DHT22;8427;52.204;7.202;2023-05-10T08:42:09;15.30;83.50
16627;DHT22;8427;52.204;7.202;2023-05-10T08:44:38;15.20;84.40
16627;DHT22;8427;52.204;7.202;2023-05-10T08:47:06;15.10;84.50
16627;DHT22;8427;52.204;7.202;2023-05-10T08:49:37;15.10;85.00
16627;DHT22;8427;52.204;7.202;2023-05-10T08:52:05;15.30;85.10
16627;DHT22;8427;52.204;7.202;2023-05-10T08:54:34;15.50;85.40
16627;DHT22;8427;52.204;7.202;2023-05-10T08:57:03;15.50;84.40
16627;DHT22;8427;52.204;7.202;2023-05-10T08:59:31;15.70;84.20
16627;DHT22;8427;52.204;7.202;2023-05-10T09:02:00;15.80;83.90
16627;DHT22;8427;52.204;7.202;2023-05-10T09:04:29;16.00;83.40
16627;DHT22;8427;52.204;7.202;2023-05-10T09:06:59;15.90;82.70
16627;DHT22;8427;52.204;7.202;2023-05-10T09:09:28;15.60;81.90
16627;DHT22;8427;52.204;7.202;2023-05-10T09:11:56;15.60;82.70
16627;DHT22;8427;52.204;7.202;2023-05-10T09:14:25;15.50;82.50
16627;DHT22;8427;52.204;7.202;2023-05-10T09:16:54;15.50;83.50
16627;DHT22;8427;52.204;7.202;2023-05-10T09:19:22;15.40;84.10
16627;DHT22;8427;52.204;7.202;2023-05-10T09:21:50;15.40;83.50
16627;DHT22;8427;52.204;7.202;2023-05-10T09:24:20;15.30;84.00
16627;DHT22;8427;52.204;7.202;2023-05-10T09:26:52;15.20;84.30
16627;DHT22;8427;52.204;7.202;2023-05-10T09:29:20;15.30;84.50
16627;DHT22;8427;52.204;7.202;2023-05-10T09:31:50;15.30;84.30
16627;DHT22;8427;52.204;7.202;2023-05-10T09:34:28;15.40;83.90
16627;DHT22;8427;52.204;7.202;2023-05-10T09:36:57;15.50;84.00
16627;DHT22;8427;52.204;7.202;2023-05-10T09:39:32;15.60;84.20
16627;DHT22;8427;52.204;7.202;2023-05-10T09:42:02;15.70;83.60
16627;DHT22;8427;52.204;7.202;2023-05-10T09:44:31;15.70;83.20
16627;DHT22;8427;52.204;7.202;2023-05-10T09:47:00;15.80;83.20
16627;DHT22;8427;52.204;7.202;2023-05-10T09:49:28;15.80;82.10
16627;DHT22;8427;52.204;7.202;2023-05-10T09:52:04;16.00;82.80
16627;DHT22;8427;52.204;7.202;2023-05-10T09:54:34;16.20;83.00
16627;DHT22;8427;52.204;7.202;2023-05-10T09:57:02;16.30;81.30
16627;DHT22;8427;52.204;7.202;2023-05-10T09:59:33;16.30;81.40
16627;DHT22;8427;52.204;7.202;2023-05-10T10:02:03;16.40;80.70
16627;DHT22;8427;52.204;7.202;2023-05-10T10:04:31;16.50;81.40
16627;DHT22;8427;52.204;7.202;2023-05-10T10:07:00;16.70;80.20
16627;DHT22;8427;52.204;7.202;2023-05-10T10:09:29;16.50;78.90
16627;DHT22;8427;52.204;7.202;2023-05-10T10:11:59;16.50;80.10
16627;DHT22;8427;52.204;7.202;2023-05-10T10:14:27;16.60;79.60
16627;DHT22;8427;52.204;7.202;2023-05-10T10:16:55;16.80;79.50
16627;DHT22;8427;52.204;7.202;2023-05-10T10:19:34;16.90;79.40
16627;DHT22;8427;52.204;7.202;2023-05-10T10:22:03;16.90;78.60
16627;DHT22;8427;52.204;7.202;2023-05-10T10:24:32;17.10;80.20
16627;DHT22;8427;52.204;7.202;2023-05-10T10:27:08;17.10;77.60
16627;DHT22;8427;52.204;7.202;2023-05-10T10:29:59;17.20;77.50
16627;DHT22;8427;52.204;7.202;2023-05-10T10:32:38;17.30;77.40
16627;DHT22;8427;52.204;7.202;2023-05-10T10:35:10;17.30;77.10
16627;DHT22;8427;52.204;7.202;2023-05-10T10:37:43;17.40;76.20
16627;DHT22;8427;52.204;7.202;2023-05-10T10:40:30;17.80;76.20
16627;DHT22;8427;52.204;7.202;2023-05-10T10:43:23;18.10;76.40
16627;DHT22;8427;52.204;7.202;2023-05-10T10:46:13;18.30;73.60
16627;DHT22;8427;52.204;7.202;2023-05-10T10:48:47;18.30;74.10
16627;DHT22;8427;52.204;7.202;2023-05-10T10:51:15;18.50;73.30
16627;DHT22;8427;52.204;7.202;2023-05-10T10:53:43;18.60;73.70
16627;DHT22;8427;52.204;7.202;2023-05-10T10:56:12;19.10;72.40
16627;DHT22;8427;52.204;7.202;2023-05-10T10:58:49;19.20;69.60
16627;DHT22;8427;52.204;7.202;2023-05-10T11:01:18;19.30;71.30
16627;DHT22;8427;52.204;7.202;2023-05-10T11:04:17;19.20;69.00
16627;DHT22;8427;52.204;7.202;2023-05-10T11:06:45;19.20;69.80
16627;DHT22;8427;52.204;7.202;2023-05-10T11:09:13;19.20;68.70
16627;DHT22;8427;52.204;7.202;2023-05-10T11:11:50;19.00;68.00
16627;DHT22;8427;52.204;7.202;2023-05-10T11:14:21;18.70;69.20
16627;DHT22;8427;52.204;7.202;2023-05-10T11:16:50;18.50;70.20
16627;DHT22;8427;52.204;7.202;2023-05-10T11:19:18;18.40;69.50
16627;DHT22;8427;52.204;7.202;2023-05-10T11:21:48;18.20;70.00
16627;DHT22;8427;52.204;7.202;2023-05-10T11:24:17;18.20;70.30
16627;DHT22;8427;52.204;7.202;2023-05-10T11:26:48;18.30;72.40
16627;DHT22;8427;52.204;7.202;2023-05-10T11:29:17;18.60;72.90
16627;DHT22;8427;52.204;7.202;2023-05-10T11:31:47;18.80;72.10
16627;DHT22;8427;52.204;7.202;2023-05-10T11:34:26;18.80;72.50
16627;DHT22;8427;52.204;7.202;2023-05-10T11:36:55;19.10;73.60
16627;DHT22;8427;52.204;7.202;2023-05-10T11:39:26;19.50;67.30
16627;DHT22;8427;52.204;7.202;2023-05-10T11:41:54;19.30;66.90
16627;DHT22;8427;52.204;7.202;2023-05-10T11:44:22;19.40;66.70
16627;DHT22;8427;52.204;7.202;2023-05-10T11:46:52;19.30;65.70
16627;DHT22;8427;52.204;7.202;2023-05-10T11:49:20;19.30;66.70
16627;DHT22;8427;52.204;7.202;2023-05-10T11:51:51;19.20;67.20
16627;DHT22;8427;52.204;7.202;2023-05-10T11:54:19;19.00;67.60
16627;DHT22;8427;52.204;7.202;2023-05-10T11:56:47;19.20;68.50
16627;DHT22;8427;52.204;7.202;2023-05-10T11:59:15;19.30;66.20
16627;DHT22;8427;52.204;7.202;2023-05-10T12:01:43;19.30;67.50
16627;DHT22;8427;52.204;7.202;2023-05-10T12:04:12;19.40;65.40
16627;DHT22;8427;52.204;7.202;2023-05-10T12:06:41;19.50;68.70
16627;DHT22;8427;52.204;7.202;2023-05-10T12:09:09;19.60;67.50
16627;DHT22;8427;52.204;7.202;2023-05-10T12:11:38;19.20;67.20
16627;DHT22;8427;52.204;7.202;2023-05-10T12:14:10;19.20;67.00
16627;DHT22;8427;52.204;7.202;2023-05-10T12:16:38;19.00;68.50
16627;DHT22;8427;52.204;7.202;2023-05-10T12:19:06;19.00;67.70
16627;DHT22;8427;52.204;7.202;2023-05-10T12:21:36;18.90;68.20
16627;DHT22;8427;52.204;7.202;2023-05-10T12:24:05;18.60;66.80
16627;DHT22;8427;52.204;7.202;2023-05-10T12:26:35;18.40;70.20
16627;DHT22;8427;52.204;7.202;2023-05-10T12:29:13;18.10;70.80
16627;DHT22;8427;52.204;7.202;2023-05-10T12:31:52;17.50;73.20
16627;DHT22;8427;52.204;7.202;2023-05-10T12:34:31;17.00;77.40
16627;DHT22;8427;52.204;7.202;2023-05-10T12:37:01;16.50;78.70
16627;DHT22;8427;52.204;7.202;2023-05-10T12:39:39;16.20;79.80
16627;DHT22;8427;52.204;7.202;2023-05-10T12:42:07;16.40;80.70
16627;DHT22;8427;52.204;7.202;2023-05-10T12:44:35;16.60;82.50
16627;DHT22;8427;52.204;7.202;2023-05-10T12:47:03;17.00;81.70
16627;DHT22;8427;52.204;7.202;2023-05-10T12:49:31;17.30;78.90
16627;DHT22;8427;52.204;7.202;2023-05-10T12:52:02;17.40;79.00
16627;DHT22;8427;52.204;7.202;2023-05-10T12:54:30;17.90;80.60
16627;DHT22;8427;52.204;7.202;2023-05-10T12:56:58;18.20;76.90
16627;DHT22;8427;52.204;7.202;2023-05-10T12:59:26;18.40;76.60
16627;DHT22;8427;52.204;7.202;2023-05-10T13:01:54;18.50;75.70
16627;DHT22;8427;52.204;7.202;2023-05-10T13:04:22;18.40;75.50
16627;DHT22;8427;52.204;7.202;2023-05-10T13:06:50;18.20;73.90
16627;DHT22;8427;52.204;7.202;2023-05-10T13:09:19;18.10;75.80
16627;DHT22;8427;52.204;7.202;2023-05-10T13:11:48;17.80;75.20
16627;DHT22;8427;52.204;7.202;2023-05-10T13:14:16;17.50;76.70
16627;DHT22;8427;52.204;7.202;2023-05-10T13:16:46;17.40;75.40
16627;DHT22;8427;52.204;7.202;2023-05-10T13:19:14;17.30;76.00
16627;DHT22;8427;52.204;7.202;2023-05-10T13:21:42;17.20;76.30
16627;DHT22;8427;52.204;7.202;2023-05-10T13:24:11;17.60;76.00
16627;DHT22;8427;52.204;7.202;2023-05-10T13:26:41;18.50;78.00
16627;DHT22;8427;52.204;7.202;2023-05-10T13:29:09;18.80;73.40
16627;DHT22;8427;52.204;7.202;2023-05-10T13:31:37;19.20;67.90
16627;DHT22;8427;52.204;7.202;2023-05-10T13:34:05;19.20;68.10
16627;DHT22;8427;52.204;7.202;2023-05-10T13:36:33;19.30;66.70
16627;DHT22;8427;52.204;7.202;2023-05-10T13:39:01;19.20;70.10
16627;DHT22;8427;52.204;7.202;2023-05-10T13:41:31;18.90;67.80
16627;DHT22;8427;52.204;7.202;2023-05-10T13:44:01;18.30;66.70
16627;DHT22;8427;52.204;7.202;2023-05-10T13:46:29;18.10;69.20
16627;DHT22;8427;52.204;7.202;2023-05-10T13:48:57;18.30;69.90
16627;DHT22;8427;52.204;7.202;2023-05-10T13:51:25;18.20;68.30
16627;DHT22;8427;52.204;7.202;2023-05-10T13:53:54;18.20;70.40
16627;DHT22;8427;52.204;7.202;2023-05-10T13:56:22;18.20;67.40
16627;DHT22;8427;52.204;7.202;2023-05-10T13:58:51;18.00;69.20
16627;DHT22;8427;52.204;7.202;2023-05-10T14:01:20;17.90;71.50
16627;DHT22;8427;52.204;7.202;2023-05-10T14:03:48;17.90;70.50
16627;DHT22;8427;52.204;7.202;2023-05-10T14:06:18;17.50;69.10
16627;DHT22;8427;52.204;7.202;2023-05-10T14:08:48;17.30;70.90
16627;DHT22;8427;52.204;7.202;2023-05-10T14:11:17;17.30;74.60
16627;DHT22;8427;52.204;7.202;2023-05-10T14:13:46;17.20;73.00
16627;DHT22;8427;52.204;7.202;2023-05-10T14:16:13;17.10;73.40
16627;DHT22;8427;52.204;7.202;2023-05-10T14:18:44;17.20;74.10
16627;DHT22;8427;52.204;7.202;2023-05-10T14:21:13;17.10;73.40
16627;DHT22;8427;52.204;7.202;2023-05-10T14:23:41;16.90;74.10
16627;DHT22;8427;52.204;7.202;2023-05-10T14:26:11;17.00;74.80
16627;DHT22;8427;52.204;7.202;2023-05-10T14:28:39;16.90;73.40
16627;DHT22;8427;52.204;7.202;2023-05-10T14:31:07;17.00;74.30
16627;DHT22;8427;52.204;7.202;2023-05-10T14:33:35;17.10;75.50
16627;DHT22;8427;52.204;7.202;2023-05-10T14:36:05;17.20;73.00
16627;DHT22;8427;52.204;7.202;2023-05-10T14:38:33;17.30;72.40
16627;DHT22;8427;52.204;7.202;2023-05-10T14:41:01;17.40;73.00
16627;DHT22;8427;52.204;7.202;2023-05-10T14:43:29;17.50;71.90
16627;DHT22;8427;52.204;7.202;2023-05-10T14:45:57;17.30;70.70
16627;DHT22;8427;52.204;7.202;2023-05-10T14:48:25;17.40;70.70
16627;DHT22;8427;52.204;7.202;2023-05-10T14:50:53;17.30;70.10
16627;DHT22;8427;52.204;7.202;2023-05-10T14:53:23;17.30;70.30
16627;DHT22;8427;52.204;7.202;2023-05-10T14:55:51;17.20;71.30
16627;DHT22;8427;52.204;7.202;2023-05-10T14:58:19;17.40;74.00
16627;DHT22;8427;52.204;7.202;2023-05-10T15:00:47;17.50;75.80
16627;DHT22;8427;52.204;7.202;2023-05-10T15:03:16;17.50;76.60
16627;DHT22;8427;52.204;7.202;2023-05-10T15:05:45;17.80;75.40
16627;DHT22;8427;52.204;7.202;2023-05-10T15:08:13;17.90;72.80
16627;DHT22;8427;52.204;7.202;2023-05-10T15:10:42;18.20;72.70
16627;DHT22;8427;52.204;7.202;2023-05-10T15:13:10;18.50;73.10
16627;DHT22;8427;52.204;7.202;2023-05-10T15:15:38;18.70;72.40
16627;DHT22;8427;52.204;7.202;2023-05-10T15:18:06;18.90;66.00
16627;DHT22;8427;52.204;7.202;2023-05-10T15:20:34;18.90;64.50
16627;DHT22;8427;52.204;7.202;2023-05-10T15:23:03;19.10;66.00
16627;DHT22;8427;52.204;7.202;2023-05-10T15:25:31;19.20;69.00
16627;DHT22;8427;52.204;7.202;2023-05-10T15:28:05;19.10;66.80
16627;DHT22;8427;52.204;7.202;2023-05-10T15:30:33;19.00;68.50
16627;DHT22;8427;52.204;7.202;2023-05-10T15:33:01;18.90;67.00
16627;DHT22;8427;52.204;7.202;2023-05-10T15:35:29;19.00;70.20
16627;DHT22;8427;52.204;7.202;2023-05-10T15:37:57;19.00;70.60
16627;DHT22;8427;52.204;7.202;2023-05-10T15:40:25;19.00;68.90
16627;DHT22;8427;52.204;7.202;2023-05-10T15:42:53;18.80;69.60
16627;DHT22;8427;52.204;7.202;2023-05-10T15:45:22;18.70;70.70
16627;DHT22;8427;52.204;7.202;2023-05-10T15:47:50;18.80;70.40
16627;DHT22;8427;52.204;7.202;2023-05-10T15:50:19;18.90;68.00
16627;DHT22;8427;52.204;7.202;2023-05-10T15:52:47;19.80;67.10
16627;DHT22;8427;52.204;7.202;2023-05-10T15:55:15;20.40;67.90
16627;DHT22;8427;52.204;7.202;2023-05-10T15:57:44;20.20;60.90
16627;DHT22;8427;52.204;7.202;2023-05-10T16:00:12;20.00;64.10
16627;DHT22;8427;52.204;7.202;2023-05-10T16:02:42;19.70;62.90
16627;DHT22;8427;52.204;7.202;2023-05-10T16:05:10;20.00;67.50
16627;DHT22;8427;52.204;7.202;2023-05-10T16:07:39;20.10;67.20
16627;DHT22;8427;52.204;7.202;2023-05-10T16:10:09;20.20;65.60
16627;DHT22;8427;52.204;7.202;2023-05-10T16:12:37;19.80;65.10
16627;DHT22;8427;52.204;7.202;2023-05-10T16:15:07;19.80;68.00
16627;DHT22;8427;52.204;7.202;2023-05-10T16:17:35;19.60;66.80
16627;DHT22;8427;52.204;7.202;2023-05-10T16:20:06;19.30;65.00
16627;DHT22;8427;52.204;7.202;2023-05-10T16:22:34;19.40;66.50
16627;DHT22;8427;52.204;7.202;2023-05-10T16:25:03;19.80;64.90
16627;DHT22;8427;52.204;7.202;2023-05-10T16:27:31;19.90;65.60
16627;DHT22;8427;52.204;7.202;2023-05-10T16:29:59;20.00;62.50
16627;DHT22;8427;52.204;7.202;2023-05-10T16:32:27;19.80;63.80
16627;DHT22;8427;52.204;7.202;2023-05-10T16:34:55;19.50;63.50
16627;DHT22;8427;52.204;7.202;2023-05-10T16:37:24;19.20;66.30
16627;DHT22;8427;52.204;7.202;2023-05-10T16:39:53;18.70;65.90
16627;DHT22;8427;52.204;7.202;2023-05-10T16:42:21;18.70;68.60
16627;DHT22;8427;52.204;7.202;2023-05-10T16:44:49;18.50;68.00
16627;DHT22;8427;52.204;7.202;2023-05-10T16:47:17;18.60;66.60
16627;DHT22;8427;52.204;7.202;2023-05-10T16:49:45;18.90;67.20
16627;DHT22;8427;52.204;7.202;2023-05-10T16:52:13;19.60;65.20
16627;DHT22;8427;52.204;7.202;2023-05-10T16:54:42;20.70;62.90
16627;DHT22;8427;52.204;7.202;2023-05-10T16:57:10;21.80;58.80
16627;DHT22;8427;52.204;7.202;2023-05-10T16:59:38;22.20;56.90
16627;DHT22;8427;52.204;7.202;2023-05-10T17:02:06;23.00;54.30
16627;DHT22;8427;52.204;7.202;2023-05-10T17:04:34;22.70;56.30
16627;DHT22;8427;52.204;7.202;2023-05-10T17:07:02;22.20;55.10
16627;DHT22;8427;52.204;7.202;2023-05-10T17:09:30;21.80;59.40
16627;DHT22;8427;52.204;7.202;2023-05-10T17:11:59;21.70;58.80
16627;DHT22;8427;52.204;7.202;2023-05-10T17:14:28;22.00;54.40
16627;DHT22;8427;52.204;7.202;2023-05-10T17:16:56;22.60;55.20
16627;DHT22;8427;52.204;7.202;2023-05-10T17:19:24;23.00;51.70
16627;DHT22;8427;52.204;7.202;2023-05-10T17:21:52;23.30;52.40
16627;DHT22;8427;52.204;7.202;2023-05-10T17:24:20;22.90;50.60
16627;DHT22;8427;52.204;7.202;2023-05-10T17:26:48;22.80;52.70
16627;DHT22;8427;52.204;7.202;2023-05-10T17:29:18;22.50;54.40
16627;DHT22;8427;52.204;7.202;2023-05-10T17:31:45;21.90;56.50
16627;DHT22;8427;52.204;7.202;2023-05-10T17:34:13;21.50;56.40
16627;DHT22;8427;52.204;7.202;2023-05-10T17:36:41;21.30;56.70
16627;DHT22;8427;52.204;7.202;2023-05-10T17:39:09;21.10;57.60
16627;DHT22;8427;52.204;7.202;2023-05-10T17:41:37;20.90;59.50
16627;DHT22;8427;52.204;7.202;2023-05-10T17:44:05;20.30;61.80
16627;DHT22;8427;52.204;7.202;2023-05-10T17:46:35;20.20;61.80
16627;DHT22;8427;52.204;7.202;2023-05-10T17:49:03;20.10;63.00
16627;DHT22;8427;52.204;7.202;2023-05-10T17:51:31;20.00;62.60
16627;DHT22;8427;52.204;7.202;2023-05-10T17:53:59;20.40;60.50
16627;DHT22;8427;52.204;7.202;2023-05-10T17:56:27;20.80;60.30
16627;DHT22;8427;52.204;7.202;2023-05-10T17:58:55;20.30;61.60
16627;DHT22;8427;52.204;7.202;2023-05-10T18:01:23;20.00;60.00
16627;DHT22;8427;52.204;7.202;2023-05-10T18:03:52;19.50;62.80
16627;DHT22;8427;52.204;7.202;2023-05-10T18:06:20;19.00;64.30
16627;DHT22;8427;52.204;7.202;2023-05-10T18:08:49;18.50;64.40
16627;DHT22;8427;52.204;7.202;2023-05-10T18:11:17;18.20;67.80
16627;DHT22;8427;52.204;7.202;2023-05-10T18:13:45;17.90;69.50
16627;DHT22;8427;52.204;7.202;2023-05-10T18:16:13;17.70;70.60
16627;DHT22;8427;52.204;7.202;2023-05-10T18:18:40;17.40;70.70
16627;DHT22;8427;52.204;7.202;2023-05-10T18:21:10;17.20;71.70
16627;DHT22;8427;52.204;7.202;2023-05-10T18:23:38;17.20;73.90
16627;DHT22;8427;52.204;7.202;2023-05-10T18:26:06;17.00;74.20
16627;DHT22;8427;52.204;7.202;2023-05-10T18:28:35;16.90;74.10
16627;DHT22;8427;52.204;7.202;2023-05-10T18:31:03;16.90;74.00
16627;DHT22;8427;52.204;7.202;2023-05-10T18:33:31;16.70;74.10
16627;DHT22;8427;52.204;7.202;2023-05-10T18:35:59;16.60;74.10
16627;DHT22;8427;52.204;7.202;2023-05-10T18:38:29;16.40;75.10
16627;DHT22;8427;52.204;7.202;2023-05-10T18:40:57;16.20;76.00
16627;DHT22;8427;52.204;7.202;2023-05-10T18:43:25;16.10;76.50
16627;DHT22;8427;52.204;7.202;2023-05-10T18:45:53;16.00;76.60
16627;DHT22;8427;52.204;7.202;2023-05-10T18:48:21;15.80;77.30
16627;DHT22;8427;52.204;7.202;2023-05-10T18:50:49;15.70;77.80
16627;DHT22;8427;52.204;7.202;2023-05-10T18:53:16;15.60;78.20
16627;DHT22;8427;52.204;7.202;2023-05-10T18:55:46;15.40;78.70
16627;DHT22;8427;52.204;7.202;2023-05-10T18:58:22;15.40;79.30
16627;DHT22;8427;52.204;7.202;2023-05-10T19:00:51;15.20;79.80
16627;DHT22;8427;52.204;7.202;2023-05-10T19:03:19;15.20;80.00
16627;DHT22;8427;52.204;7.202;2023-05-10T19:05:47;15.10;80.30
16627;DHT22;8427;52.204;7.202;2023-05-10T19:08:15;15.00;81.20
16627;DHT22;8427;52.204;7.202;2023-05-10T19:10:43;14.90;81.50
16627;DHT22;8427;52.204;7.202;2023-05-10T19:13:12;14.90;81.40
16627;DHT22;8427;52.204;7.202;2023-05-10T19:15:41;14.90;81.30
16627;DHT22;8427;52.204;7.202;2023-05-10T19:18:09;14.80;81.90
16627;DHT22;8427;52.204;7.202;2023-05-10T19:20:37;14.80;81.90
16627;DHT22;8427;52.204;7.202;2023-05-10T19:23:08;14.80;82.30
16627;DHT22;8427;52.204;7.202;2023-05-10T19:25:36;14.70;82.60
16627;DHT22;8427;52.204;7.202;2023-05-10T19:28:05;14.70;82.70
16627;DHT22;8427;52.204;7.202;2023-05-10T19:30:35;14.60;83.00
16627;DHT22;8427;52.204;7.202;2023-05-10T19:33:03;14.60;83.00
16627;DHT22;8427;52.204;7.202;2023-05-10T19:35:31;14.50;83.40
16627;DHT22;8427;52.204;7.202;2023-05-10T19:37:59;14.50;84.00
16627;DHT22;8427;52.204;7.202;2023-05-10T19:40:27;14.50;84.20
16627;DHT22;8427;52.204;7.202;2023-05-10T19:42:55;14.50;84.10
16627;DHT22;8427;52.204;7.202;2023-05-10T19:45:23;14.40;84.10
16627;DHT22;8427;52.204;7.202;2023-05-10T19:47:53;14.40;84.10
16627;DHT22;8427;52.204;7.202;2023-05-10T19:50:21;14.40;84.00
16627;DHT22;8427;52.204;7.202;2023-05-10T19:52:49;14.40;84.10
16627;DHT22;8427;52.204;7.202;2023-05-10T19:55:25;14.30;84.20
16627;DHT22;8427;52.204;7.202;2023-05-10T19:57:53;14.20;84.40
16627;DHT22;8427;52.204;7.202;2023-05-10T20:00:23;14.10;84.50
16627;DHT22;8427;52.204;7.202;2023-05-10T20:02:54;14.20;84.50
16627;DHT22;8427;52.204;7.202;2023-05-10T20:05:22;14.10;84.60
16627;DHT22;8427;52.204;7.202;2023-05-10T20:07:50;14.20;84.50
16627;DHT22;8427;52.204;7.202;2023-05-10T20:10:18;14.10;84.40
16627;DHT22;8427;52.204;7.202;2023-05-10T20:12:48;14.00;84.30
16627;DHT22;8427;52.204;7.202;2023-05-10T20:15:17;14.00;84.50
16627;DHT22;8427;52.204;7.202;2023-05-10T20:17:47;13.90;84.60
16627;DHT22;8427;52.204;7.202;2023-05-10T20:20:18;14.00;84.40
16627;DHT22;8427;52.204;7.202;2023-05-10T20:22:47;13.90;84.40
16627;DHT22;8427;52.204;7.202;2023-05-10T20:25:16;13.90;84.70
16627;DHT22;8427;52.204;7.202;2023-05-10T20:27:44;13.80;84.80
16627;DHT22;8427;52.204;7.202;2023-05-10T20:30:12;13.80;85.10
16627;DHT22;8427;52.204;7.202;2023-05-10T20:32:40;13.70;85.50
16627;DHT22;8427;52.204;7.202;2023-05-10T20:35:09;13.70;85.40
16627;DHT22;8427;52.204;7.202;2023-05-10T20:37:39;13.60;85.50
16627;DHT22;8427;52.204;7.202;2023-05-10T20:40:07;13.60;85.80
16627;DHT22;8427;52.204;7.202;2023-05-10T20:42:36;13.50;86.10
16627;DHT22;8427;52.204;7.202;2023-05-10T20:45:05;13.40;86.00
16627;DHT22;8427;52.204;7.202;2023-05-10T20:47:34;13.40;86.00
16627;DHT22;8427;52.204;7.202;2023-05-10T20:50:03;13.30;86.40
16627;DHT22;8427;52.204;7.202;2023-05-10T20:52:31;13.30;86.20
16627;DHT22;8427;52.204;7.202;2023-05-10T20:55:00;13.30;86.20
16627;DHT22;8427;52.204;7.202;2023-05-10T20:57:28;13.40;86.50
16627;DHT22;8427;52.204;7.202;2023-05-10T20:59:56;13.30;86.70
16627;DHT22;8427;52.204;7.202;2023-05-10T21:02:24;13.30;86.80
16627;DHT22;8427;52.204;7.202;2023-05-10T21:04:52;13.30;87.00
16627;DHT22;8427;52.204;7.202;2023-05-10T21:07:23;13.30;87.10
16627;DHT22;8427;52.204;7.202;2023-05-10T21:09:51;13.30;87.30
16627;DHT22;8427;52.204;7.202;2023-05-10T21:12:21;13.40;87.30
16627;DHT22;8427;52.204;7.202;2023-05-10T21:14:49;13.30;87.40
16627;DHT22;8427;52.204;7.202;2023-05-10T21:17:17;13.30;87.40
16627;DHT22;8427;52.204;7.202;2023-05-10T21:19:46;13.30;87.10
16627;DHT22;8427;52.204;7.202;2023-05-10T21:22:14;13.30;87.20
16627;DHT22;8427;52.204;7.202;2023-05-10T21:24:42;13.30;87.10
16627;DHT22;8427;52.204;7.202;2023-05-10T21:27:10;13.20;87.00
16627;DHT22;8427;52.204;7.202;2023-05-10T21:29:39;13.30;87.10
16627;DHT22;8427;52.204;7.202;2023-05-10T21:32:07;13.30;87.00
16627;DHT22;8427;52.204;7.202;2023-05-10T21:34:36;13.30;87.10
16627;DHT22;8427;52.204;7.202;2023-05-10T21:37:04;13.30;87.20
16627;DHT22;8427;52.204;7.202;2023-05-10T21:39:32;13.30;87.10
16627;DHT22;8427;52.204;7.202;2023-05-10T21:41:59;13.40;87.10
16627;DHT22;8427;52.204;7.202;2023-05-10T21:44:29;13.30;87.30
16627;DHT22;8427;52.204;7.202;2023-05-10T21:46:59;13.40;87.00
16627;DHT22;8427;52.204;7.202;2023-05-10T21:49:27;13.50;87.00
16627;DHT22;8427;52.204;7.202;2023-05-10T21:51:55;13.50;87.10
16627;DHT22;8427;52.204;7.202;2023-05-10T21:54:23;13.50;87.10
16627;DHT22;8427;52.204;7.202;2023-05-10T21:56:51;13.60;87.00
16627;DHT22;8427;52.204;7.202;2023-05-10T21:59:19;13.60;86.70
16627;DHT22;8427;52.204;7.202;2023-05-10T22:01:48;13.60;86.40
16627;DHT22;8427;52.204;7.202;2023-05-10T22:04:17;13.60;86.30
16627;DHT22;8427;52.204;7.202;2023-05-10T22:06:45;13.60;86.40
16627;DHT22;8427;52.204;7.202;2023-05-10T22:09:14;13.70;86.50
16627;DHT22;8427;52.204;7.202;2023-05-10T22:11:42;13.70;86.40
